sensor_id;sensor_type;location;lat;lon;timestamp;pressure;altitude;pressure_sealevel;temperature;humidity
4590;BME280;2307;48.448;9.216;2023-05-10T00:01:50;94856.31;;;12.37;100.00
4590;BME280;2307;48.448;9.216;2023-05-10T00:04:17;94858.94;;;12.32;100.00
4590;BME280;2307;48.448;9.216;2023-05-10T00:06:43;94867.41;;;12.29;100.00
4590;BME280;2307;48.448;9.216;2023-05-10T00:09:10;94878.53;;;12.31;100.00
4590;BME280;2307;48.448;9.216;2023-05-10T00:11:36;94874.31;;;12.35;100.00
4590;BME280;2307;48.448;9.216;2023-05-10T00:14:04;94871.66;;;12.30;100.00
4590;BME280;2307;48.448;9.216;2023-05-10T00:16:30;94874.78;;;12.22;100.00
4590;BME280;2307;48.448;9.216;2023-05-10T00:18:56;94873.97;;;12.21;100.00
4590;BME280;2307;48.448;9.216;2023-05-10T00:21:23;94880.06;;;12.22;100.00
4590;BME280;2307;48.448;9.216;2023-05-10T00:23:49;94881.09;;;12.16;100.00
4590;BME280;2307;48.448;9.216;2023-05-10T00:26:15;94880.31;;;12.15;100.00
4590;BME280;2307;48.448;9.216;2023-05-10T00:28:42;94887.41;;;12.10;100.00
4590;BME280;2307;48.448;9.216;2023-05-10T00:31:10;94888.47;;;12.09;100.00
4590;BME280;2307;48.448;9.216;2023-05-10T00:33:36;94890.59;;;12.12;100.00
4590;BME280;2307;48.448;9.216;2023-05-10T00:36:03;94884.78;;;12.15;100.00
4590;BME280;2307;48.448;9.216;2023-05-10T00:38:32;94894.34;;;12.21;100.00
4590;BME280;2307;48.448;9.216;2023-05-10T00:40:59;94888.00;;;12.17;100.00
4590;BME280;2307;48.448;9.216;2023-05-10T00:43:25;94895.38;;;12.15;100.00
4590;BME280;2307;48.448;9.216;2023-05-10T00:45:52;94903.59;;;12.13;100.00
4590;BME280;2307;48.448;9.216;2023-05-10T00:48:20;94914.91;;;12.04;100.00
4590;BME280;2307;48.448;9.216;2023-05-10T00:50:47;94918.06;;;12.01;100.00
4590;BME280;2307;48.448;9.216;2023-05-10T00:53:13;94933.91;;;11.96;100.00
4590;BME280;2307;48.448;9.216;2023-05-10T00:55:40;94932.28;;;11.90;100.00
4590;BME280;2307;48.448;9.216;2023-05-10T00:58:06;94934.91;;;11.90;100.00
4590;BME280;2307;48.448;9.216;2023-05-10T01:00:33;94955.25;;;11.84;100.00
4590;BME280;2307;48.448;9.216;2023-05-10T01:03:00;94933.78;;;11.76;100.00
4590;BME280;2307;48.448;9.216;2023-05-10T01:05:27;94947.41;;;11.67;100.00
4590;BME280;2307;48.448;9.216;2023-05-10T01:07:54;94940.75;;;11.60;100.00
4590;BME280;2307;48.448;9.216;2023-05-10T01:10:20;94944.44;;;11.59;100.00
4590;BME280;2307;48.448;9.216;2023-05-10T01:12:47;94946.88;;;11.65;100.00
4590;BME280;2307;48.448;9.216;2023-05-10T01:15:13;94935.25;;;11.66;100.00
4590;BME280;2307;48.448;9.216;2023-05-10T01:17:41;94949.03;;;11.68;100.00
4590;BME280;2307;48.448;9.216;2023-05-10T01:20:09;94945.84;;;11.66;100.00
4590;BME280;2307;48.448;9.216;2023-05-10T01:23:04;94944.75;;;11.62;100.00
4590;BME280;2307;48.448;9.216;2023-05-10T01:31:03;94932.00;;;11.59;100.00
4590;BME280;2307;48.448;9.216;2023-05-10T01:33:35;94939.44;;;11.62;100.00
4590;BME280;2307;48.448;9.216;2023-05-10T01:36:06;94940.53;;;11.66;100.00
4590;BME280;2307;48.448;9.216;2023-05-10T01:38:38;94939.75;;;11.66;100.00
4590;BME280;2307;48.448;9.216;2023-05-10T01:41:10;94946.06;;;11.65;100.00
4590;BME280;2307;48.448;9.216;2023-05-10T01:43:45;94941.06;;;11.63;100.00
4590;BME280;2307;48.448;9.216;2023-05-10T01:46:16;94954.31;;;11.68;100.00
4590;BME280;2307;48.448;9.216;2023-05-10T01:48:47;94944.22;;;11.65;100.00
4590;BME280;2307;48.448;9.216;2023-05-10T01:51:14;94944.22;;;11.65;100.00
4590;BME280;2307;48.448;9.216;2023-05-10T01:53:42;94962.03;;;11.70;100.00
4590;BME280;2307;48.448;9.216;2023-05-10T01:56:10;94964.88;;;11.68;100.00
4590;BME280;2307;48.448;9.216;2023-05-10T01:58:38;94962.81;;;11.70;100.00
4590;BME280;2307;48.448;9.216;2023-05-10T02:01:07;94962.25;;;11.68;100.00
4590;BME280;2307;48.448;9.216;2023-05-10T02:03:34;94956.25;;;11.73;100.00
4590;BME280;2307;48.448;9.216;2023-05-10T02:06:04;94969.72;;;11.71;100.00
4590;BME280;2307;48.448;9.216;2023-05-10T02:08:31;94954.53;;;11.67;100.00
4590;BME280;2307;48.448;9.216;2023-05-10T02:10:58;94960.63;;;11.67;100.00
4590;BME280;2307;48.448;9.216;2023-05-10T02:13:25;94965.69;;;11.69;100.00
4590;BME280;2307;48.448;9.216;2023-05-10T02:15:53;94960.09;;;11.65;100.00
4590;BME280;2307;48.448;9.216;2023-05-10T02:18:20;94958.97;;;11.56;100.00
4590;BME280;2307;48.448;9.216;2023-05-10T02:20:48;94960.00;;;11.55;100.00
4590;BME280;2307;48.448;9.216;2023-05-10T02:23:17;94959.78;;;11.57;100.00
4590;BME280;2307;48.448;9.216;2023-05-10T02:25:43;94963.50;;;11.61;100.00
4590;BME280;2307;48.448;9.216;2023-05-10T02:28:11;94957.97;;;11.62;100.00
4590;BME280;2307;48.448;9.216;2023-05-10T02:30:38;94961.63;;;11.56;100.00
4590;BME280;2307;48.448;9.216;2023-05-10T02:33:05;94971.63;;;11.54;100.00
4590;BME280;2307;48.448;9.216;2023-05-10T02:35:32;94969.47;;;11.51;100.00
4590;BME280;2307;48.448;9.216;2023-05-10T02:37:58;94977.34;;;11.41;100.00
4590;BME280;2307;48.448;9.216;2023-05-10T02:40:26;94978.50;;;11.50;100.00
4590;BME280;2307;48.448;9.216;2023-05-10T02:42:54;94973.19;;;11.50;100.00
4590;BME280;2307;48.448;9.216;2023-05-10T02:45:22;94968.41;;;11.47;100.00
4590;BME280;2307;48.448;9.216;2023-05-10T02:47:49;94969.44;;;11.46;100.00
4590;BME280;2307;48.448;9.216;2023-05-10T02:50:16;94970.59;;;11.55;100.00
4590;BME280;2307;48.448;9.216;2023-05-10T02:52:44;94961.13;;;11.59;100.00
4590;BME280;2307;48.448;9.216;2023-05-10T02:55:13;94963.69;;;11.54;100.00
4590;BME280;2307;48.448;9.216;2023-05-10T02:57:43;94968.94;;;11.49;100.00
4590;BME280;2307;48.448;9.216;2023-05-10T03:00:11;94975.78;;;11.45;100.00
4590;BME280;2307;48.448;9.216;2023-05-10T03:02:37;94970.50;;;11.45;100.00
4590;BME280;2307;48.448;9.216;2023-05-10T03:05:04;94968.84;;;11.39;100.00
4590;BME280;2307;48.448;9.216;2023-05-10T03:07:30;94955.69;;;11.44;100.00
4590;BME280;2307;48.448;9.216;2023-05-10T03:09:57;94970.16;;;11.37;100.00
4590;BME280;2307;48.448;9.216;2023-05-10T03:12:26;94968.34;;;11.42;100.00
4590;BME280;2307;48.448;9.216;2023-05-10T03:15:00;94971.50;;;11.39;100.00
4590;BME280;2307;48.448;9.216;2023-05-10T03:17:29;94963.53;;;11.34;100.00
4590;BME280;2307;48.448;9.216;2023-05-10T03:19:56;94970.94;;;11.37;100.00
4590;BME280;2307;48.448;9.216;2023-05-10T03:22:24;94978.88;;;11.37;100.00
4590;BME280;2307;48.448;9.216;2023-05-10T03:24:53;94977.28;;;11.36;100.00
4590;BME280;2307;48.448;9.216;2023-05-10T03:27:19;94978.34;;;11.35;100.00
4590;BME280;2307;48.448;9.216;2023-05-10T03:29:47;94988.31;;;11.28;100.00
4590;BME280;2307;48.448;9.216;2023-05-10T03:32:15;94987.31;;;11.34;100.00
4590;BME280;2307;48.448;9.216;2023-05-10T03:34:41;94988.91;;;11.35;100.00
4590;BME280;2307;48.448;9.216;2023-05-10T03:37:08;94983.38;;;11.37;100.00
4590;BME280;2307;48.448;9.216;2023-05-10T03:39:34;94982.34;;;11.38;100.00
4590;BME280;2307;48.448;9.216;2023-05-10T03:42:01;94986.94;;;11.47;100.00
4590;BME280;2307;48.448;9.216;2023-05-10T03:44:27;94986.34;;;11.45;100.00
4590;BME280;2307;48.448;9.216;2023-05-10T03:46:54;94989.25;;;11.44;100.00
4590;BME280;2307;48.448;9.216;2023-05-10T03:49:22;94989.59;;;11.52;100.00
4590;BME280;2307;48.448;9.216;2023-05-10T03:51:48;94974.78;;;11.51;100.00
4590;BME280;2307;48.448;9.216;2023-05-10T03:54:15;94970.00;;;11.48;100.00
4590;BME280;2307;48.448;9.216;2023-05-10T03:56:41;94977.16;;;11.48;100.00
4590;BME280;2307;48.448;9.216;2023-05-10T03:59:07;94969.69;;;11.45;100.00
4590;BME280;2307;48.448;9.216;2023-05-10T04:01:34;94978.19;;;11.47;100.00
4590;BME280;2307;48.448;9.216;2023-05-10T04:04:00;94987.44;;;11.44;100.00
4590;BME280;2307;48.448;9.216;2023-05-10T04:06:28;94989.47;;;11.37;100.00
4590;BME280;2307;48.448;9.216;2023-05-10T04:08:54;94981.06;;;11.45;100.00
4590;BME280;2307;48.448;9.216;2023-05-10T04:11:20;94999.88;;;11.49;100.00
4590;BME280;2307;48.448;9.216;2023-05-10T04:13:47;94985.09;;;11.48;100.00
4590;BME280;2307;48.448;9.216;2023-05-10T04:16:14;94997.00;;;11.50;100.00
4590;BME280;2307;48.448;9.216;2023-05-10T04:18:40;94996.22;;;11.55;100.00
4590;BME280;2307;48.448;9.216;2023-05-10T04:21:10;95000.47;;;11.56;100.00
4590;BME280;2307;48.448;9.216;2023-05-10T04:23:38;94990.94;;;11.55;100.00
4590;BME280;2307;48.448;9.216;2023-05-10T04:26:05;94989.19;;;11.65;100.00
4590;BME280;2307;48.448;9.216;2023-05-10T04:28:31;94985.72;;;11.60;100.00
4590;BME280;2307;48.448;9.216;2023-05-10T04:31:01;94995.22;;;11.61;100.00
4590;BME280;2307;48.448;9.216;2023-05-10T04:33:28;94991.03;;;11.65;100.00
4590;BME280;2307;48.448;9.216;2023-05-10T04:35:54;94994.47;;;11.60;100.00
4590;BME280;2307;48.448;9.216;2023-05-10T04:38:21;94999.75;;;11.60;100.00
4590;BME280;2307;48.448;9.216;2023-05-10T04:40:48;94992.34;;;11.62;100.00
4590;BME280;2307;48.448;9.216;2023-05-10T04:43:15;95005.31;;;11.64;100.00
4590;BME280;2307;48.448;9.216;2023-05-10T04:45:41;95005.06;;;11.65;100.00
4590;BME280;2307;48.448;9.216;2023-05-10T04:48:07;95012.47;;;11.63;100.00
4590;BME280;2307;48.448;9.216;2023-05-10T04:50:34;95014.63;;;11.66;100.00
4590;BME280;2307;48.448;9.216;2023-05-10T04:53:00;95011.69;;;11.68;100.00
4590;BME280;2307;48.448;9.216;2023-05-10T04:55:27;95010.72;;;11.74;100.00
4590;BME280;2307;48.448;9.216;2023-05-10T04:57:54;95014.63;;;11.66;100.00
4590;BME280;2307;48.448;9.216;2023-05-10T05:00:22;95015.38;;;11.67;100.00
4590;BME280;2307;48.448;9.216;2023-05-10T05:02:48;95022.75;;;11.60;100.00
4590;BME280;2307;48.448;9.216;2023-05-10T05:05:15;95024.47;;;11.49;100.00
4590;BME280;2307;48.448;9.216;2023-05-10T05:07:41;95019.38;;;11.43;100.00
4590;BME280;2307;48.448;9.216;2023-05-10T05:10:08;95019.59;;;11.36;100.00
4590;BME280;2307;48.448;9.216;2023-05-10T05:12:34;95014.00;;;11.33;100.00
4590;BME280;2307;48.448;9.216;2023-05-10T05:15:02;95022.00;;;11.38;100.00
4590;BME280;2307;48.448;9.216;2023-05-10T05:17:29;95026.53;;;11.42;100.00
4590;BME280;2307;48.448;9.216;2023-05-10T05:19:56;95022.88;;;11.48;100.00
4590;BME280;2307;48.448;9.216;2023-05-10T05:22:22;95033.44;;;11.48;100.00
4590;BME280;2307;48.448;9.216;2023-05-10T05:24:52;95037.66;;;11.44;100.00
4590;BME280;2307;48.448;9.216;2023-05-10T05:27:18;95037.16;;;11.47;100.00
4590;BME280;2307;48.448;9.216;2023-05-10T05:29:45;95035.56;;;11.46;100.00
4590;BME280;2307;48.448;9.216;2023-05-10T05:32:13;95036.66;;;11.50;100.00
4590;BME280;2307;48.448;9.216;2023-05-10T05:34:40;95039.34;;;11.55;100.00
4590;BME280;2307;48.448;9.216;2023-05-10T05:37:06;95041.81;;;11.62;100.00
4590;BME280;2307;48.448;9.216;2023-05-10T05:39:32;95038.66;;;11.65;100.00
4590;BME280;2307;48.448;9.216;2023-05-10T05:41:59;95043.22;;;11.69;100.00
4590;BME280;2307;48.448;9.216;2023-05-10T05:44:25;95048.84;;;11.73;100.00
4590;BME280;2307;48.448;9.216;2023-05-10T05:46:53;95053.00;;;11.69;100.00
4590;BME280;2307;48.448;9.216;2023-05-10T05:49:21;95055.06;;;11.67;100.00
4590;BME280;2307;48.448;9.216;2023-05-10T05:51:47;95054.84;;;11.68;100.00
4590;BME280;2307;48.448;9.216;2023-05-10T05:54:14;95053.72;;;11.64;100.00
4590;BME280;2307;48.448;9.216;2023-05-10T05:56:40;95062.72;;;11.63;100.00
4590;BME280;2307;48.448;9.216;2023-05-10T05:59:07;95063.16;;;11.55;100.00
4590;BME280;2307;48.448;9.216;2023-05-10T06:01:33;95054.19;;;11.56;100.00
4590;BME280;2307;48.448;9.216;2023-05-10T06:04:00;95049.75;;;11.62;100.00
4590;BME280;2307;48.448;9.216;2023-05-10T06:06:28;95052.53;;;11.50;100.00
4590;BME280;2307;48.448;9.216;2023-05-10T06:08:54;95050.75;;;11.56;100.00
4590;BME280;2307;48.448;9.216;2023-05-10T06:11:21;95055.22;;;11.55;100.00
4590;BME280;2307;48.448;9.216;2023-05-10T06:13:47;95055.22;;;11.55;100.00
4590;BME280;2307;48.448;9.216;2023-05-10T06:16:14;95064.19;;;11.54;100.00
4590;BME280;2307;48.448;9.216;2023-05-10T06:18:40;95065.00;;;11.55;100.00
4590;BME280;2307;48.448;9.216;2023-05-10T06:21:06;95062.47;;;11.65;100.00
4590;BME280;2307;48.448;9.216;2023-05-10T06:23:34;95061.72;;;11.69;100.00
4590;BME280;2307;48.448;9.216;2023-05-10T06:26:01;95063.56;;;11.69;100.00
4590;BME280;2307;48.448;9.216;2023-05-10T06:28:28;95068.13;;;11.73;100.00
4590;BME280;2307;48.448;9.216;2023-05-10T06:30:56;95072.31;;;11.69;100.00
4590;BME280;2307;48.448;9.216;2023-05-10T06:33:22;95079.69;;;11.67;100.00
4590;BME280;2307;48.448;9.216;2023-05-10T06:35:49;95071.34;;;11.76;100.00
4590;BME280;2307;48.448;9.216;2023-05-10T06:38:15;95069.84;;;11.85;100.00
4590;BME280;2307;48.448;9.216;2023-05-10T06:40:43;95076.16;;;11.84;100.00
4590;BME280;2307;48.448;9.216;2023-05-10T06:43:09;95080.97;;;11.87;100.00
4590;BME280;2307;48.448;9.216;2023-05-10T06:45:36;95080.53;;;11.95;100.00
4590;BME280;2307;48.448;9.216;2023-05-10T06:48:02;95083.72;;;11.97;100.00
4590;BME280;2307;48.448;9.216;2023-05-10T06:50:28;95094.91;;;12.04;100.00
4590;BME280;2307;48.448;9.216;2023-05-10T06:52:55;95091.25;;;12.10;100.00
4590;BME280;2307;48.448;9.216;2023-05-10T06:55:21;95096.53;;;12.10;100.00
4590;BME280;2307;48.448;9.216;2023-05-10T06:57:49;95092.38;;;12.19;100.00
4590;BME280;2307;48.448;9.216;2023-05-10T07:00:16;95093.47;;;12.23;100.00
4590;BME280;2307;48.448;9.216;2023-05-10T07:02:42;95095.44;;;12.38;100.00
4590;BME280;2307;48.448;9.216;2023-05-10T07:05:08;95084.53;;;12.29;100.00
4590;BME280;2307;48.448;9.216;2023-05-10T07:07:35;95090.97;;;12.38;100.00
4590;BME280;2307;48.448;9.216;2023-05-10T07:10:01;95091.22;;;12.37;100.00
4590;BME280;2307;48.448;9.216;2023-05-10T07:12:28;95093.59;;;12.38;100.00
4590;BME280;2307;48.448;9.216;2023-05-10T07:14:55;95090.97;;;12.38;100.00
4590;BME280;2307;48.448;9.216;2023-05-10T07:17:22;95089.06;;;12.34;100.00
4590;BME280;2307;48.448;9.216;2023-05-10T07:19:48;95092.06;;;12.42;100.00
4590;BME280;2307;48.448;9.216;2023-05-10T07:22:15;95095.44;;;12.38;100.00
4590;BME280;2307;48.448;9.216;2023-05-10T07:24:41;95094.13;;;12.35;100.00
4590;BME280;2307;48.448;9.216;2023-05-10T07:27:08;95093.56;;;12.33;100.00
4590;BME280;2307;48.448;9.216;2023-05-10T07:29:35;95099.41;;;12.35;100.00
4590;BME280;2307;48.448;9.216;2023-05-10T07:32:03;95097.78;;;12.29;100.00
4590;BME280;2307;48.448;9.216;2023-05-10T07:34:30;95105.66;;;12.24;100.00
4590;BME280;2307;48.448;9.216;2023-05-10T07:36:57;95106.09;;;12.11;100.00
4590;BME280;2307;48.448;9.216;2023-05-10T07:39:23;95095.94;;;12.03;100.00
4590;BME280;2307;48.448;9.216;2023-05-10T07:41:50;95098.06;;;12.01;100.00
4590;BME280;2307;48.448;9.216;2023-05-10T07:44:16;95106.00;;;12.01;100.00
4590;BME280;2307;48.448;9.216;2023-05-10T07:46:43;95107.84;;;12.00;100.00
4590;BME280;2307;48.448;9.216;2023-05-10T07:49:11;95106.28;;;12.04;100.00
4590;BME280;2307;48.448;9.216;2023-05-10T07:51:37;95112.47;;;12.15;100.00
4590;BME280;2307;48.448;9.216;2023-05-10T07:54:04;95104.53;;;12.15;100.00
4590;BME280;2307;48.448;9.216;2023-05-10T07:56:31;95097.78;;;12.29;100.00
4590;BME280;2307;48.448;9.216;2023-05-10T07:58:58;95104.88;;;12.23;100.00
4590;BME280;2307;48.448;9.216;2023-05-10T08:01:24;95114.56;;;12.40;100.00
4590;BME280;2307;48.448;9.216;2023-05-10T08:03:50;95096.75;;;12.35;100.00
4590;BME280;2307;48.448;9.216;2023-05-10T08:06:19;95096.84;;;12.45;100.00
4590;BME280;2307;48.448;9.216;2023-05-10T08:08:46;95104.31;;;12.53;100.00
4590;BME280;2307;48.448;9.216;2023-05-10T08:11:15;95102.28;;;12.65;100.00
4590;BME280;2307;48.448;9.216;2023-05-10T08:13:41;95097.84;;;12.76;100.00
4590;BME280;2307;48.448;9.216;2023-05-10T08:16:08;95099.25;;;12.84;100.00
4590;BME280;2307;48.448;9.216;2023-05-10T08:18:34;95110.34;;;12.81;100.00
4590;BME280;2307;48.448;9.216;2023-05-10T08:21:00;95104.81;;;12.87;100.00
4590;BME280;2307;48.448;9.216;2023-05-10T08:23:28;95106.22;;;13.00;100.00
4590;BME280;2307;48.448;9.216;2023-05-10T08:25:55;95100.41;;;13.03;100.00
4590;BME280;2307;48.448;9.216;2023-05-10T08:28:21;95108.25;;;13.24;100.00
4590;BME280;2307;48.448;9.216;2023-05-10T08:30:49;95106.16;;;13.32;100.00
4590;BME280;2307;48.448;9.216;2023-05-10T08:33:17;95110.69;;;13.36;100.00
4590;BME280;2307;48.448;9.216;2023-05-10T08:35:43;95106.47;;;13.45;100.00
4590;BME280;2307;48.448;9.216;2023-05-10T08:38:09;95114.00;;;13.63;100.00
4590;BME280;2307;48.448;9.216;2023-05-10T08:40:37;95111.84;;;13.65;100.00
4590;BME280;2307;48.448;9.216;2023-05-10T08:43:04;95108.69;;;13.73;100.00
4590;BME280;2307;48.448;9.216;2023-05-10T08:45:32;95112.38;;;13.62;100.00
4590;BME280;2307;48.448;9.216;2023-05-10T08:47:59;95109.97;;;13.51;100.00
4590;BME280;2307;48.448;9.216;2023-05-10T08:50:27;95118.38;;;13.38;100.00
4590;BME280;2307;48.448;9.216;2023-05-10T08:52:54;95117.13;;;13.55;100.00
4590;BME280;2307;48.448;9.216;2023-05-10T08:55:21;95122.47;;;13.70;100.00
4590;BME280;2307;48.448;9.216;2023-05-10T08:57:50;95115.59;;;13.69;100.00
4590;BME280;2307;48.448;9.216;2023-05-10T09:00:17;95121.44;;;13.66;100.00
4590;BME280;2307;48.448;9.216;2023-05-10T09:02:44;95118.25;;;13.69;100.00
4590;BME280;2307;48.448;9.216;2023-05-10T09:05:10;95123.31;;;13.76;100.00
4590;BME280;2307;48.448;9.216;2023-05-10T09:07:37;95127.31;;;13.78;100.00
4590;BME280;2307;48.448;9.216;2023-05-10T09:10:04;95135.75;;;13.70;100.00
4590;BME280;2307;48.448;9.216;2023-05-10T09:12:30;95136.88;;;13.84;100.00
4590;BME280;2307;48.448;9.216;2023-05-10T09:14:58;95131.56;;;13.84;100.00
4590;BME280;2307;48.448;9.216;2023-05-10T09:17:25;95129.97;;;13.78;100.00
4590;BME280;2307;48.448;9.216;2023-05-10T09:19:56;95129.47;;;13.97;100.00
4590;BME280;2307;48.448;9.216;2023-05-10T09:22:23;95133.75;;;14.13;100.00
4590;BME280;2307;48.448;9.216;2023-05-10T09:25:02;95134.03;;;14.21;100.00
4590;BME280;2307;48.448;9.216;2023-05-10T09:27:29;95140.72;;;14.34;100.00
4590;BME280;2307;48.448;9.216;2023-05-10T09:29:55;95142.28;;;14.25;100.00
4590;BME280;2307;48.448;9.216;2023-05-10T09:32:23;95143.94;;;14.36;100.00
4590;BME280;2307;48.448;9.216;2023-05-10T09:35:05;95134.88;;;14.37;100.00
4590;BME280;2307;48.448;9.216;2023-05-10T09:37:32;95135.91;;;14.31;100.00
4590;BME280;2307;48.448;9.216;2023-05-10T09:39:58;95144.66;;;14.21;100.00
4590;BME280;2307;48.448;9.216;2023-05-10T09:42:25;95136.97;;;14.20;100.00
4590;BME280;2307;48.448;9.216;2023-05-10T09:44:51;95145.72;;;14.10;100.00
4590;BME280;2307;48.448;9.216;2023-05-10T09:47:17;95143.31;;;14.09;100.00
4590;BME280;2307;48.448;9.216;2023-05-10T09:49:46;95146.22;;;14.07;100.00
4590;BME280;2307;48.448;9.216;2023-05-10T09:52:15;95149.13;;;14.06;100.00
4590;BME280;2307;48.448;9.216;2023-05-10T09:54:42;95144.09;;;14.04;100.00
4590;BME280;2307;48.448;9.216;2023-05-10T09:57:18;95140.09;;;13.97;100.00
4590;BME280;2307;48.448;9.216;2023-05-10T09:59:46;95144.03;;;13.89;100.00
4590;BME280;2307;48.448;9.216;2023-05-10T10:02:13;95145.13;;;13.93;100.00
4590;BME280;2307;48.448;9.216;2023-05-10T10:04:39;95149.00;;;13.65;100.00
4590;BME280;2307;48.448;9.216;2023-05-10T10:07:07;95153.06;;;13.26;100.00
4590;BME280;2307;48.448;9.216;2023-05-10T10:09:33;95169.00;;;12.94;100.00
4590;BME280;2307;48.448;9.216;2023-05-10T10:12:00;95172.94;;;12.55;100.00
4590;BME280;2307;48.448;9.216;2023-05-10T10:14:27;95167.66;;;12.28;100.00
4590;BME280;2307;48.448;9.216;2023-05-10T10:16:54;95180.28;;;12.21;100.00
4590;BME280;2307;48.448;9.216;2023-05-10T10:19:21;95183.91;;;12.10;100.00
4590;BME280;2307;48.448;9.216;2023-05-10T10:21:48;95173.13;;;12.16;100.00
4590;BME280;2307;48.448;9.216;2023-05-10T10:24:16;95182.94;;;12.21;100.00
4590;BME280;2307;48.448;9.216;2023-05-10T10:26:42;95172.63;;;12.19;100.00
4590;BME280;2307;48.448;9.216;2023-05-10T10:29:14;95182.81;;;12.33;100.00
4590;BME280;2307;48.448;9.216;2023-05-10T10:31:45;95172.81;;;12.40;100.00
4590;BME280;2307;48.448;9.216;2023-05-10T10:34:17;95168.81;;;12.37;100.00
4590;BME280;2307;48.448;9.216;2023-05-10T10:36:47;95166.84;;;12.27;100.00
4590;BME280;2307;48.448;9.216;2023-05-10T10:39:14;95173.22;;;12.27;100.00
4590;BME280;2307;48.448;9.216;2023-05-10T10:41:48;95169.81;;;12.31;100.00
4590;BME280;2307;48.448;9.216;2023-05-10T10:44:25;95168.72;;;12.27;100.00
4590;BME280;2307;48.448;9.216;2023-05-10T10:46:58;95174.03;;;12.27;100.00
4590;BME280;2307;48.448;9.216;2023-05-10T10:49:25;95168.47;;;12.29;100.00
4590;BME280;2307;48.448;9.216;2023-05-10T10:54:37;95153.69;;;12.64;100.00
4590;BME280;2307;48.448;9.216;2023-05-10T10:57:11;95150.75;;;12.98;100.00
4590;BME280;2307;48.448;9.216;2023-05-10T10:59:41;95144.06;;;13.27;100.00
4590;BME280;2307;48.448;9.216;2023-05-10T11:02:07;95139.97;;;13.56;100.00
4590;BME280;2307;48.448;9.216;2023-05-10T11:04:41;95145.38;;;13.87;100.00
4590;BME280;2307;48.448;9.216;2023-05-10T11:07:17;95144.88;;;14.00;100.00
4590;BME280;2307;48.448;9.216;2023-05-10T11:09:45;95149.72;;;14.23;100.00
4590;BME280;2307;48.448;9.216;2023-05-10T11:12:13;95144.69;;;14.26;100.00
4590;BME280;2307;48.448;9.216;2023-05-10T11:14:39;95140.47;;;14.46;100.00
4590;BME280;2307;48.448;9.216;2023-05-10T11:22:28;95134.88;;;14.98;100.00
4590;BME280;2307;48.448;9.216;2023-05-10T11:24:58;95143.34;;;15.20;100.00
4590;BME280;2307;48.448;9.216;2023-05-10T11:27:26;95146.56;;;15.12;100.00
4590;BME280;2307;48.448;9.216;2023-05-10T11:29:52;95151.34;;;15.15;100.00
4590;BME280;2307;48.448;9.216;2023-05-10T11:32:20;95180.31;;;14.35;100.00
4590;BME280;2307;48.448;9.216;2023-05-10T11:34:47;95191.56;;;13.86;100.00
4590;BME280;2307;48.448;9.216;2023-05-10T11:37:13;95192.09;;;13.36;100.00
4590;BME280;2307;48.448;9.216;2023-05-10T11:39:45;95206.81;;;13.11;100.00
4590;BME280;2307;48.448;9.216;2023-05-10T11:42:12;95193.13;;;12.93;100.00
4590;BME280;2307;48.448;9.216;2023-05-10T11:44:39;95190.97;;;12.90;100.00
4590;BME280;2307;48.448;9.216;2023-05-10T11:47:08;95193.97;;;12.98;100.00
4590;BME280;2307;48.448;9.216;2023-05-10T11:49:34;95196.91;;;13.07;100.00
4590;BME280;2307;48.448;9.216;2023-05-10T11:52:04;95206.00;;;13.11;100.00
4590;BME280;2307;48.448;9.216;2023-05-10T11:54:31;95210.06;;;12.92;100.00
4590;BME280;2307;48.448;9.216;2023-05-10T11:56:59;95219.50;;;12.77;100.00
4590;BME280;2307;48.448;9.216;2023-05-10T11:59:26;95210.28;;;12.53;100.00
4590;BME280;2307;48.448;9.216;2023-05-10T12:01:53;95214.00;;;12.52;100.00
4590;BME280;2307;48.448;9.216;2023-05-10T12:04:20;95215.28;;;12.50;100.00
4590;BME280;2307;48.448;9.216;2023-05-10T12:06:47;95210.97;;;12.70;100.00
4590;BME280;2307;48.448;9.216;2023-05-10T12:09:13;95218.00;;;12.87;100.00
4590;BME280;2307;48.448;9.216;2023-05-10T12:11:40;95204.34;;;13.05;100.00
4590;BME280;2307;48.448;9.216;2023-05-10T12:14:07;95208.19;;;13.19;100.00
4590;BME280;2307;48.448;9.216;2023-05-10T12:16:34;95206.94;;;13.32;100.00
4590;BME280;2307;48.448;9.216;2023-05-10T12:19:03;95209.56;;;13.26;100.00
4590;BME280;2307;48.448;9.216;2023-05-10T12:21:30;95207.25;;;13.40;100.00
4590;BME280;2307;48.448;9.216;2023-05-10T12:23:59;95205.25;;;13.62;100.00
4590;BME280;2307;48.448;9.216;2023-05-10T12:26:26;95214.78;;;13.58;100.00
4590;BME280;2307;48.448;9.216;2023-05-10T12:28:54;95209.19;;;13.55;100.00
4590;BME280;2307;48.448;9.216;2023-05-10T12:31:20;95214.34;;;13.76;100.00
4590;BME280;2307;48.448;9.216;2023-05-10T12:33:47;95213.34;;;13.88;100.00
4590;BME280;2307;48.448;9.216;2023-05-10T12:36:15;95219.66;;;13.76;100.00
4590;BME280;2307;48.448;9.216;2023-05-10T12:38:43;95213.75;;;13.64;100.00
4590;BME280;2307;48.448;9.216;2023-05-10T12:41:13;95213.28;;;13.72;100.00
4590;BME280;2307;48.448;9.216;2023-05-10T12:43:39;95198.25;;;13.41;100.00
4590;BME280;2307;48.448;9.216;2023-05-10T12:46:06;95201.97;;;13.45;100.00
4590;BME280;2307;48.448;9.216;2023-05-10T12:48:33;95202.03;;;13.55;100.00
4590;BME280;2307;48.448;9.216;2023-05-10T12:51:00;95203.09;;;13.54;100.00
4590;BME280;2307;48.448;9.216;2023-05-10T12:53:28;95204.47;;;13.67;100.00
4590;BME280;2307;48.448;9.216;2023-05-10T12:55:54;95201.91;;;13.82;100.00
4590;BME280;2307;48.448;9.216;2023-05-10T12:58:20;95207.22;;;13.82;100.00
4590;BME280;2307;48.448;9.216;2023-05-10T13:00:47;95203.78;;;13.87;100.00
4590;BME280;2307;48.448;9.216;2023-05-10T13:03:13;95209.53;;;13.63;100.00
4590;BME280;2307;48.448;9.216;2023-05-10T13:05:40;95207.50;;;13.86;100.00
4590;BME280;2307;48.448;9.216;2023-05-10T13:08:07;95200.13;;;13.98;100.00
4590;BME280;2307;48.448;9.216;2023-05-10T13:10:34;95206.50;;;14.07;100.00
4590;BME280;2307;48.448;9.216;2023-05-10T13:13:01;95201.72;;;14.09;100.00
4590;BME280;2307;48.448;9.216;2023-05-10T13:15:27;95201.25;;;14.17;100.00
4590;BME280;2307;48.448;9.216;2023-05-10T13:17:54;95203.94;;;14.37;100.00
4590;BME280;2307;48.448;9.216;2023-05-10T13:20:20;95201.88;;;14.54;100.00
4590;BME280;2307;48.448;9.216;2023-05-10T13:22:47;95199.22;;;14.54;100.00
4590;BME280;2307;48.448;9.216;2023-05-10T13:25:13;95193.88;;;14.44;100.00